Time;durP1;ratioP1;P1;durP2;ratioP2;P2;SDS_P1;SDS_P2;PMS_P1;PMS_P2;Temp;Humidity;BMP_temperature;BMP_pressure;BME280_temperature;BME280_humidity;BME280_pressure;Samples;Min_cycle;Max_cycle;Signal;HPM_P1;HPM_P2
2023/09/07 00:00:22;;;;;;;28.08;6.22;;;25.60;99.90;;;;;;4989959;28;20023;-86
2023/09/07 00:02:48;;;;;;;30.05;6.15;;;25.60;99.90;;;;;;4989265;28;20402;-87
2023/09/07 00:05:14;;;;;;;21.90;6.28;;;25.60;99.90;;;;;;4990265;28;20034;-87
2023/09/07 00:07:39;;;;;;;26.75;5.63;;;25.60;99.90;;;;;;4990262;28;20375;-86
2023/09/07 00:10:06;;;;;;;27.90;6.20;;;25.60;99.90;;;;;;4990058;28;20033;-87
2023/09/07 00:12:31;;;;;;;24.23;6.15;;;25.50;99.90;;;;;;4990332;28;20589;-87
2023/09/07 00:14:58;;;;;;;33.00;6.55;;;25.50;99.90;;;;;;4990029;28;20109;-88
2023/09/07 00:17:25;;;;;;;21.85;5.57;;;25.40;99.90;;;;;;4989028;28;20015;-87
2023/09/07 00:19:52;;;;;;;23.80;6.70;;;25.40;99.90;;;;;;4988879;28;20057;-86
2023/09/07 00:22:18;;;;;;;26.75;5.63;;;25.40;99.90;;;;;;5004951;28;20034;-88
2023/09/07 00:24:44;;;;;;;26.98;6.57;;;25.30;99.90;;;;;;4990669;28;20026;-87
2023/09/07 00:27:11;;;;;;;24.35;5.80;;;25.30;99.90;;;;;;4989693;28;20018;-88
2023/09/07 00:29:40;;;;;;;31.55;6.38;;;25.20;99.90;;;;;;4989813;28;20101;-87
2023/09/07 00:32:07;;;;;;;29.60;5.50;;;25.20;99.90;;;;;;4989758;28;20042;-86
2023/09/07 00:34:33;;;;;;;28.10;5.78;;;25.10;99.90;;;;;;4989971;28;20418;-87
2023/09/07 00:37:00;;;;;;;22.83;6.38;;;25.00;99.90;;;;;;4989904;28;20109;-86
2023/09/07 00:39:25;;;;;;;23.33;6.25;;;25.00;99.90;;;;;;4988894;28;20431;-87
2023/09/07 00:41:51;;;;;;;27.60;6.00;;;24.90;99.90;;;;;;4989815;28;20562;-86
2023/09/07 00:44:16;;;;;;;23.88;5.65;;;24.80;99.90;;;;;;4990347;28;20061;-87
2023/09/07 00:46:44;;;;;;;23.73;5.78;;;24.80;99.90;;;;;;4989240;28;20371;-87
2023/09/07 00:49:13;;;;;;;28.48;6.40;;;24.80;99.90;;;;;;4985089;28;20498;-86
2023/09/07 00:51:39;;;;;;;31.13;6.68;;;24.80;99.90;;;;;;4980839;28;20435;-86
2023/09/07 00:54:05;;;;;;;22.10;5.88;;;24.80;99.90;;;;;;4976770;28;20038;-89
2023/09/07 00:56:31;;;;;;;26.20;6.40;;;24.70;99.90;;;;;;4989654;28;20028;-85
2023/09/07 00:58:59;;;;;;;29.08;6.28;;;24.70;99.90;;;;;;4990061;28;20137;-86
2023/09/07 01:01:25;;;;;;;;;;;24.70;99.90;;;;;;4987239;28;20019;-86
2023/09/07 01:03:51;;;;;;;28.20;6.30;;;24.60;99.90;;;;;;4988649;28;19910;-87
2023/09/07 01:06:22;;;;;;;24.65;6.55;;;24.60;99.90;;;;;;4990902;28;20049;-86
2023/09/07 01:08:53;;;;;;;28.10;6.25;;;24.50;99.90;;;;;;4990075;28;20034;-86
2023/09/07 01:11:20;;;;;;;21.20;6.28;;;24.50;99.90;;;;;;4979376;28;20027;-87
2023/09/07 01:13:46;;;;;;;30.90;6.37;;;24.40;99.90;;;;;;5006598;28;20045;-87
2023/09/07 01:16:13;;;;;;;20.48;5.70;;;24.40;99.90;;;;;;4992002;28;20057;-90
2023/09/07 01:18:42;;;;;;;19.52;6.30;;;24.40;99.90;;;;;;4993702;28;20053;-87
2023/09/07 01:21:08;;;;;;;26.05;6.68;;;24.40;99.90;;;;;;4989602;28;20038;-88
2023/09/07 01:23:36;;;;;;;24.33;6.03;;;24.40;99.90;;;;;;4989877;28;20018;-88
2023/09/07 01:26:03;;;;;;;25.05;6.88;;;24.40;99.90;;;;;;4980397;28;20113;-89
2023/09/07 01:28:29;;;;;;;33.78;6.45;;;24.40;99.90;;;;;;4968691;28;20054;-88
2023/09/07 01:30:55;;;;;;;28.05;6.43;;;24.40;99.90;;;;;;4970444;28;20113;-87
2023/09/07 01:33:21;;;;;;;25.85;6.45;;;24.40;99.90;;;;;;4971182;28;20037;-88
2023/09/07 01:35:46;;;;;;;21.63;6.13;;;24.30;99.90;;;;;;4970520;28;20098;-88
2023/09/07 01:38:12;;;;;;;24.38;6.05;;;24.40;99.90;;;;;;4968874;28;20102;-86
2023/09/07 01:40:37;;;;;;;32.22;6.90;;;24.40;99.90;;;;;;4970241;28;20487;-88
2023/09/07 01:43:04;;;;;;;21.67;5.82;;;24.40;99.90;;;;;;4974291;28;20109;-88
2023/09/07 01:45:30;;;;;;;19.73;6.30;;;24.40;99.90;;;;;;4974128;28;20027;-88
2023/09/07 01:47:56;;;;;;;25.40;6.53;;;24.40;99.90;;;;;;4974025;28;20058;-88
2023/09/07 01:50:21;;;;;;;29.45;6.50;;;24.40;99.90;;;;;;4990878;28;20422;-88
2023/09/07 01:52:48;;;;;;;26.02;6.10;;;24.30;99.90;;;;;;4983010;28;20034;-88
2023/09/07 01:55:14;;;;;;;20.63;5.65;;;24.30;99.90;;;;;;4973490;28;20054;-88
2023/09/07 01:57:40;;;;;;;15.57;6.03;;;24.30;99.90;;;;;;4989318;28;20073;-88
2023/09/07 02:00:06;;;;;;;26.13;6.22;;;24.30;99.90;;;;;;4986986;28;20054;-88
2023/09/07 02:02:32;;;;;;;23.33;5.93;;;24.40;99.90;;;;;;4990984;28;20022;-88
2023/09/07 02:04:58;;;;;;;25.00;6.15;;;24.30;99.90;;;;;;4993183;28;20513;-88
2023/09/07 02:07:24;;;;;;;22.50;5.95;;;24.30;99.90;;;;;;4991418;28;20054;-88
2023/09/07 02:09:49;;;;;;;19.17;5.85;;;24.20;99.90;;;;;;4983099;28;20050;-88
2023/09/07 02:12:15;;;;;;;20.13;5.97;;;24.20;99.90;;;;;;4973723;28;20067;-88
2023/09/07 02:14:41;;;;;;;30.30;6.07;;;24.20;99.90;;;;;;4991067;28;20061;-88
2023/09/07 02:17:06;;;;;;;22.02;5.43;;;24.20;99.90;;;;;;4988522;28;20038;-87
2023/09/07 02:19:32;;;;;;;19.05;5.57;;;24.10;99.90;;;;;;4989179;28;20478;-87
2023/09/07 02:21:58;;;;;;;21.80;5.95;;;24.00;99.90;;;;;;4989826;28;20030;-89
2023/09/07 02:24:23;;;;;;;25.05;5.75;;;24.00;99.90;;;;;;4985334;28;20018;-87
2023/09/07 02:26:50;;;;;;;22.08;6.00;;;24.10;99.90;;;;;;4990473;28;20073;-87
2023/09/07 02:29:16;;;;;;;22.52;6.20;;;24.00;99.90;;;;;;4978051;28;20054;-87
2023/09/07 02:31:41;;;;;;;21.55;5.65;;;24.00;99.90;;;;;;4983991;28;20077;-87
2023/09/07 02:34:07;;;;;;;21.10;5.68;;;24.00;99.90;;;;;;4987826;28;20030;-88
2023/09/07 02:36:35;;;;;;;23.80;5.68;;;24.00;99.90;;;;;;4995623;28;20030;-88
2023/09/07 02:39:01;;;;;;;;;;;24.00;99.90;;;;;;4986245;28;20034;-88
2023/09/07 02:41:27;;;;;;;20.83;6.25;;;24.00;99.90;;;;;;4982434;28;19910;-88
2023/09/07 02:43:52;;;;;;;23.95;6.45;;;23.90;99.90;;;;;;4986138;28;20031;-88
2023/09/07 02:46:18;;;;;;;16.33;5.40;;;23.90;99.90;;;;;;4990835;28;20038;-88
2023/09/07 02:48:43;;;;;;;20.55;5.32;;;23.80;99.90;;;;;;4989187;28;20038;-88
2023/09/07 02:51:09;;;;;;;24.05;5.53;;;23.80;99.90;;;;;;4981803;28;20513;-88
2023/09/07 02:53:35;;;;;;;18.35;5.20;;;23.80;99.90;;;;;;4993664;28;20129;-88
2023/09/07 02:56:04;;;;;;;22.63;6.15;;;23.80;99.90;;;;;;4986765;28;20023;-88
2023/09/07 02:58:30;;;;;;;18.30;5.82;;;23.70;99.90;;;;;;4976427;28;20035;-88
2023/09/07 03:00:56;;;;;;;29.38;5.90;;;23.60;99.90;;;;;;4977101;28;20071;-87
2023/09/07 03:03:22;;;;;;;16.63;5.50;;;23.60;99.90;;;;;;4987359;28;20019;-89
2023/09/07 03:05:48;;;;;;;27.80;6.00;;;23.60;99.90;;;;;;4975355;28;20050;-89
2023/09/07 03:08:13;;;;;;;25.20;5.88;;;23.50;99.90;;;;;;4981402;28;20014;-88
2023/09/07 03:10:39;;;;;;;23.75;5.78;;;23.50;99.90;;;;;;4991866;28;20076;-87
2023/09/07 03:13:11;;;;;;;23.08;5.63;;;23.50;99.90;;;;;;4988854;28;20042;-88
2023/09/07 03:15:37;;;;;;;18.08;5.75;;;23.50;99.90;;;;;;4991742;28;20038;-87
2023/09/07 03:18:03;;;;;;;19.20;5.47;;;23.50;99.90;;;;;;4992400;28;20030;-88
2023/09/07 03:20:29;;;;;;;18.55;5.50;;;23.50;99.90;;;;;;4992525;28;20030;-89
2023/09/07 03:22:56;;;;;;;22.70;5.20;;;23.50;99.90;;;;;;4993987;28;20402;-89
2023/09/07 03:25:21;;;;;;;19.00;5.65;;;23.40;99.90;;;;;;4991048;28;20034;-88
2023/09/07 03:27:47;;;;;;;23.83;5.95;;;23.40;99.90;;;;;;4976688;28;20259;-89
2023/09/07 03:30:13;;;;;;;23.30;5.88;;;23.40;99.90;;;;;;4990085;28;20030;-88
2023/09/07 03:32:38;;;;;;;16.77;5.63;;;23.40;99.90;;;;;;4991541;28;20498;-88
2023/09/07 03:35:09;;;;;;;19.45;5.57;;;23.40;99.90;;;;;;4989844;28;20034;-89
2023/09/07 03:37:35;;;;;;;27.52;6.35;;;23.40;99.90;;;;;;4990445;28;20025;-87
2023/09/07 03:40:01;;;;;;;20.30;5.65;;;23.40;99.90;;;;;;4990729;28;20065;-88
2023/09/07 03:42:26;;;;;;;24.08;6.25;;;23.30;99.90;;;;;;4989599;28;20400;-87
2023/09/07 03:44:52;;;;;;;21.08;5.10;;;23.30;99.90;;;;;;4975168;28;20031;-87
2023/09/07 03:47:18;;;;;;;21.42;5.65;;;23.30;99.90;;;;;;4983773;28;20468;-88
2023/09/07 03:49:44;;;;;;;23.85;5.68;;;23.40;99.90;;;;;;4991264;28;20023;-88
2023/09/07 03:52:10;;;;;;;20.73;5.28;;;23.30;99.90;;;;;;4985106;28;20031;-87
2023/09/07 03:54:36;;;;;;;16.63;5.70;;;23.30;99.90;;;;;;4972020;28;20066;-88
2023/09/07 03:57:02;;;;;;;14.88;4.95;;;23.30;99.90;;;;;;4975824;28;20022;-88
2023/09/07 03:59:29;;;;;;;12.50;4.50;;;23.30;99.90;;;;;;4980669;28;20065;-88
2023/09/07 04:01:55;;;;;;;12.52;5.07;;;23.30;99.90;;;;;;4988590;28;20022;-88
2023/09/07 04:04:21;;;;;;;22.60;5.13;;;23.20;99.90;;;;;;4990198;28;20049;-88
2023/09/07 04:06:47;;;;;;;20.02;5.32;;;23.20;99.90;;;;;;4982806;28;20022;-88
2023/09/07 04:09:14;;;;;;;16.90;4.88;;;23.20;99.90;;;;;;4971527;28;20026;-89
2023/09/07 04:11:40;;;;;;;23.42;5.65;;;23.20;99.90;;;;;;4971329;28;20027;-87
2023/09/07 04:14:05;;;;;;;17.48;5.70;;;23.20;99.90;;;;;;4990643;28;20165;-88
2023/09/07 04:16:31;;;;;;;23.23;5.10;;;23.20;99.90;;;;;;4979277;28;20093;-87
2023/09/07 04:18:56;;;;;;;18.30;5.25;;;23.10;99.90;;;;;;4971533;28;20030;-90
2023/09/07 04:21:22;;;;;;;18.85;5.95;;;23.00;99.90;;;;;;4970750;28;20031;-86
2023/09/07 04:23:48;;;;;;;14.63;5.30;;;22.90;99.90;;;;;;4970831;28;20030;-87
2023/09/07 04:26:13;;;;;;;18.52;5.43;;;22.90;99.90;;;;;;4989635;28;20034;-89
2023/09/07 04:28:39;;;;;;;26.00;7.05;;;22.80;99.90;;;;;;4987349;28;20059;-89
2023/09/07 04:31:06;;;;;;;22.58;5.60;;;22.80;99.90;;;;;;4969469;28;20035;-89
2023/09/07 04:33:33;;;;;;;16.02;5.63;;;22.80;99.90;;;;;;4982484;28;20034;-88
2023/09/07 04:36:08;;;;;;;17.83;5.60;;;22.80;99.90;;;;;;4990134;28;20491;-87
2023/09/07 04:38:34;;;;;;;18.83;5.15;;;22.80;99.90;;;;;;4988954;28;20085;-87
2023/09/07 04:41:10;;;;;;;17.25;5.45;;;22.80;99.90;;;;;;4980846;28;20030;-88
2023/09/07 04:43:38;;;;;;;19.80;6.20;;;22.70;99.90;;;;;;4985472;28;20022;-89
2023/09/07 04:46:04;;;;;;;;;;;22.70;99.90;;;;;;4989170;28;20061;-88
2023/09/07 04:48:29;;;;;;;13.75;5.00;;;22.60;99.90;;;;;;5000866;28;20325;-87
2023/09/07 04:51:03;;;;;;;16.60;5.25;;;22.60;99.90;;;;;;4994127;28;20427;-88
2023/09/07 04:53:30;;;;;;;14.07;5.10;;;22.60;99.90;;;;;;4996131;28;20042;-88
2023/09/07 04:55:56;;;;;;;14.80;4.78;;;22.60;99.90;;;;;;4987378;28;20032;-87
2023/09/07 04:58:22;;;;;;;16.60;5.13;;;22.50;99.90;;;;;;4985299;28;20069;-88
2023/09/07 05:00:48;;;;;;;17.52;5.80;;;22.50;99.90;;;;;;4989923;28;20026;-87
2023/09/07 05:03:13;;;;;;;16.08;4.85;;;22.50;99.90;;;;;;4989527;28;20130;-89
2023/09/07 05:05:40;;;;;;;13.23;4.88;;;22.50;99.90;;;;;;5005253;28;20122;-90
2023/09/07 05:08:06;;;;;;;12.63;5.30;;;22.50;99.90;;;;;;4973516;28;20022;-89
2023/09/07 05:10:35;;;;;;;14.88;5.03;;;22.50;99.90;;;;;;4985480;28;20364;-87
2023/09/07 05:13:01;;;;;;;19.20;5.28;;;22.40;99.90;;;;;;4982237;28;20157;-87
2023/09/07 05:15:27;;;;;;;20.48;5.30;;;22.40;99.90;;;;;;4968800;28;20105;-88
2023/09/07 05:17:53;;;;;;;18.45;5.38;;;22.40;99.90;;;;;;4970455;28;20283;-88
2023/09/07 05:20:18;;;;;;;13.98;5.90;;;22.40;99.90;;;;;;4984994;28;20504;-86
2023/09/07 05:22:44;;;;;;;10.07;4.93;;;22.40;99.90;;;;;;4969116;28;20110;-83
2023/09/07 05:25:10;;;;;;;11.85;4.72;;;22.40;99.90;;;;;;4970601;28;20037;-86
2023/09/07 05:27:35;;;;;;;14.35;5.45;;;22.40;99.90;;;;;;4970245;28;20026;-85
2023/09/07 05:30:02;;;;;;;15.60;5.35;;;22.40;99.90;;;;;;4970764;28;20101;-85
2023/09/07 05:32:27;;;;;;;14.13;5.22;;;22.40;99.90;;;;;;4969844;28;20558;-85
2023/09/07 05:34:53;;;;;;;15.93;4.47;;;22.40;99.90;;;;;;4971394;28;20035;-85
2023/09/07 05:37:19;;;;;;;13.80;4.70;;;22.40;99.90;;;;;;4988380;28;20034;-85
2023/09/07 05:39:44;;;;;;;13.73;4.93;;;22.30;99.90;;;;;;4989425;28;20022;-85
2023/09/07 05:42:10;;;;;;;14.43;4.68;;;22.30;99.90;;;;;;4974720;28;20372;-84
2023/09/07 05:44:36;;;;;;;16.50;5.00;;;22.30;99.90;;;;;;4981352;28;20027;-85
2023/09/07 05:47:02;;;;;;;17.00;5.53;;;22.30;99.90;;;;;;4986627;28;20027;-84
2023/09/07 05:49:28;;;;;;;13.38;5.43;;;22.30;99.90;;;;;;4987729;28;20019;-85
2023/09/07 05:51:53;;;;;;;16.92;5.13;;;22.40;99.90;;;;;;4981990;28;20042;-85
2023/09/07 05:54:19;;;;;;;11.40;4.70;;;22.40;99.90;;;;;;4979721;28;20573;-84
2023/09/07 05:56:44;;;;;;;15.70;4.40;;;22.40;99.90;;;;;;4986806;28;20105;-84
2023/09/07 05:59:10;;;;;;;9.63;4.38;;;22.50;99.90;;;;;;4989449;28;20022;-86
2023/09/07 06:01:36;;;;;;;15.52;5.03;;;22.40;99.90;;;;;;4987526;28;20035;-85
2023/09/07 06:04:02;;;;;;;11.07;4.55;;;22.50;99.90;;;;;;4989417;28;20023;-85
2023/09/07 06:06:28;;;;;;;15.98;4.88;;;22.50;99.90;;;;;;4988573;28;20096;-86
2023/09/07 06:08:53;;;;;;;17.48;5.80;;;22.50;99.90;;;;;;4989429;28;20014;-85
2023/09/07 06:11:19;;;;;;;12.63;4.65;;;22.60;99.90;;;;;;4984728;28;20042;-84
2023/09/07 06:13:46;;;;;;;10.20;4.93;;;22.60;99.90;;;;;;4969330;28;20030;-85
2023/09/07 06:16:12;;;;;;;14.95;5.20;;;22.60;99.90;;;;;;4969567;28;20109;-84
2023/09/07 06:18:37;;;;;;;13.00;4.85;;;22.70;99.90;;;;;;4977795;28;20118;-85
2023/09/07 06:21:05;;;;;;;9.95;5.10;;;22.80;99.90;;;;;;4989914;28;20480;-86
2023/09/07 06:23:31;;;;;;;11.93;4.70;;;22.80;99.90;;;;;;4989408;28;20057;-84
2023/09/07 06:25:57;;;;;;;12.27;4.45;;;22.80;99.90;;;;;;4986840;28;20070;-84
2023/09/07 06:28:22;;;;;;;15.13;5.00;;;22.80;99.90;;;;;;4990739;28;20026;-85
2023/09/07 06:30:48;;;;;;;11.93;4.85;;;22.90;99.90;;;;;;4990622;28;20034;-85
2023/09/07 06:33:14;;;;;;;9.68;5.15;;;23.00;99.90;;;;;;4990886;28;20035;-84
2023/09/07 06:35:39;;;;;;;15.50;4.78;;;23.10;99.90;;;;;;4990157;28;20038;-85
2023/09/07 06:38:05;;;;;;;7.78;4.30;;;23.10;99.90;;;;;;4992876;28;20406;-85
2023/09/07 06:40:30;;;;;;;10.57;4.72;;;23.20;99.90;;;;;;4992669;28;20025;-86
2023/09/07 06:42:56;;;;;;;11.10;4.70;;;23.20;99.90;;;;;;4981295;28;20081;-84
2023/09/07 06:45:23;;;;;;;13.73;5.15;;;23.30;99.90;;;;;;4981666;28;20057;-86
2023/09/07 06:47:52;;;;;;;11.65;4.32;;;23.40;99.90;;;;;;4991614;28;20424;-85
2023/09/07 06:50:18;;;;;;;10.93;4.47;;;23.40;99.90;;;;;;4992441;28;20054;-85
2023/09/07 06:52:44;;;;;;;9.55;4.30;;;23.50;99.90;;;;;;4981389;28;20387;-84
2023/09/07 06:55:10;;;;;;;10.98;4.18;;;23.50;99.90;;;;;;4972487;28;20042;-85
2023/09/07 06:57:35;;;;;;;14.77;5.05;;;23.60;99.90;;;;;;4988153;28;20026;-85
2023/09/07 07:00:05;;;;;;;9.43;4.68;;;23.70;99.90;;;;;;4989839;28;20512;-84
2023/09/07 07:02:31;;;;;;;11.13;3.92;;;23.70;99.90;;;;;;4981741;28;20393;-84
2023/09/07 07:04:56;;;;;;;9.85;4.10;;;23.80;99.90;;;;;;4991059;28;20106;-84
2023/09/07 07:07:22;;;;;;;10.23;4.38;;;23.80;99.90;;;;;;4986091;28;20105;-84
2023/09/07 07:09:47;;;;;;;11.60;4.40;;;23.90;99.90;;;;;;4990278;28;20474;-85
2023/09/07 07:12:13;;;;;;;13.05;4.88;;;24.00;99.90;;;;;;4982073;28;20026;-85
2023/09/07 07:14:39;;;;;;;7.47;4.40;;;24.00;99.90;;;;;;4971514;28;20039;-85
2023/09/07 07:17:05;;;;;;;8.35;4.57;;;24.00;99.90;;;;;;4973074;28;20030;-86
2023/09/07 07:19:31;;;;;;;11.32;4.50;;;24.10;99.90;;;;;;4974860;28;20030;-85
2023/09/07 07:21:56;;;;;;;10.13;4.70;;;24.20;99.90;;;;;;4989917;28;20031;-84
2023/09/07 07:24:22;;;;;;;13.30;5.20;;;24.20;99.90;;;;;;4975820;28;20029;-85
2023/09/07 07:26:48;;;;;;;11.38;4.82;;;24.20;99.90;;;;;;4999792;28;20032;-85
2023/09/07 07:29:13;;;;;;;8.15;4.45;;;24.30;99.90;;;;;;5011321;28;20080;-85
2023/09/07 07:31:39;;;;;;;12.27;4.53;;;24.30;99.90;;;;;;4996673;28;20026;-85
2023/09/07 07:34:05;;;;;;;9.05;4.57;;;24.40;99.90;;;;;;4990066;28;20052;-84
2023/09/07 07:36:30;;;;;;;12.93;5.03;;;24.40;99.90;;;;;;4976696;28;20092;-84
2023/09/07 07:38:56;;;;;;;10.50;4.88;;;24.50;99.90;;;;;;4976266;28;20486;-86
2023/09/07 07:41:22;;;;;;;10.02;4.82;;;24.60;99.90;;;;;;4973476;28;20511;-85
2023/09/07 07:43:47;;;;;;;9.90;4.45;;;24.60;99.90;;;;;;4983435;28;20038;-85
2023/09/07 07:46:15;;;;;;;14.02;4.72;;;24.70;99.90;;;;;;4991373;28;20077;-85
2023/09/07 07:48:41;;;;;;;11.50;4.47;;;24.70;99.90;;;;;;4978861;28;20023;-85
2023/09/07 07:51:08;;;;;;;9.48;4.43;;;24.80;99.90;;;;;;4972581;28;20491;-86
2023/09/07 07:53:34;;;;;;;12.67;5.03;;;24.90;99.90;;;;;;4985029;28;20125;-84
2023/09/07 07:56:00;;;;;;;9.75;5.13;;;25.00;99.90;;;;;;4979880;28;20141;-85
2023/09/07 07:58:26;;;;;;;12.98;4.45;;;25.00;99.90;;;;;;4988303;28;20038;-86
2023/09/07 08:00:52;;;;;;;17.48;4.63;;;25.10;99.90;;;;;;4989366;28;20018;-85
2023/09/07 08:03:17;;;;;;;14.30;5.03;;;25.20;99.90;;;;;;4988547;28;20030;-86
2023/09/07 08:05:43;;;;;;;17.15;5.60;;;25.30;99.90;;;;;;4978311;28;20057;-85
2023/09/07 08:08:10;;;;;;;12.07;5.35;;;25.30;99.90;;;;;;4987211;28;20092;-85
2023/09/07 08:10:37;;;;;;;12.70;4.72;;;25.30;99.90;;;;;;4989002;28;20497;-85
2023/09/07 08:13:03;;;;;;;13.35;4.80;;;25.40;99.90;;;;;;4990707;28;20042;-85
2023/09/07 08:15:31;;;;;;;15.38;5.20;;;25.50;99.90;;;;;;4978777;28;20023;-85
2023/09/07 08:17:57;;;;;;;17.70;5.13;;;25.60;99.90;;;;;;4978438;28;20041;-85
2023/09/07 08:20:22;;;;;;;17.00;5.70;;;25.60;99.90;;;;;;4985870;28;20101;-84
2023/09/07 08:22:48;;;;;;;14.00;5.40;;;25.80;99.90;;;;;;4972181;28;20030;-86
2023/09/07 08:25:14;;;;;;;11.98;4.85;;;25.80;99.90;;;;;;4988508;28;20403;-85
2023/09/07 08:27:44;;;;;;;9.55;4.75;;;25.90;99.90;;;;;;5000148;28;20099;-86
2023/09/07 08:30:15;;;;;;;18.25;5.22;;;26.00;99.90;;;;;;5008851;28;20174;-85
2023/09/07 08:32:41;;;;;;;12.07;4.68;;;26.00;99.90;;;;;;5005174;28;20437;-86
2023/09/07 08:35:12;;;;;;;14.25;5.07;;;26.10;99.90;;;;;;5010186;28;20478;-86
2023/09/07 08:37:38;;;;;;;15.23;5.40;;;26.20;99.90;;;;;;5010436;28;20397;-85
2023/09/07 08:40:07;;;;;;;12.77;5.18;;;26.30;99.90;;;;;;5010111;28;20034;-86
2023/09/07 08:42:32;;;;;;;11.48;4.90;;;26.40;99.90;;;;;;5010148;28;20100;-85
2023/09/07 08:45:03;;;;;;;12.88;5.15;;;26.50;99.90;;;;;;4991666;28;20538;-85
2023/09/07 08:47:31;;;;;;;12.48;5.35;;;26.50;99.90;;;;;;4989285;28;20022;-86
2023/09/07 08:49:57;;;;;;;11.85;4.80;;;26.60;99.90;;;;;;4989925;28;20097;-85
2023/09/07 08:52:23;;;;;;;15.40;5.38;;;26.50;99.90;;;;;;4989958;28;20030;-85
2023/09/07 08:54:49;;;;;;;14.68;4.93;;;26.60;99.90;;;;;;4990176;28;20030;-86
2023/09/07 08:57:17;;;;;;;15.05;5.15;;;26.70;99.90;;;;;;4981707;28;20026;-85
2023/09/07 08:59:43;;;;;;;14.75;5.45;;;26.80;99.90;;;;;;4971554;28;20027;-86
2023/09/07 09:02:11;;;;;;;12.55;5.05;;;27.00;99.90;;;;;;4980162;28;20034;-86
2023/09/07 09:04:38;;;;;;;14.68;5.05;;;27.00;99.90;;;;;;4989187;28;20030;-86
2023/09/07 09:07:04;;;;;;;18.35;5.90;;;27.00;99.90;;;;;;4978955;28;20351;-85
2023/09/07 09:09:30;;;;;;;14.20;5.85;;;27.10;99.90;;;;;;4982796;28;20042;-87
2023/09/07 09:12:10;;;;;;;18.30;5.20;;;27.20;99.90;;;;;;4974932;28;20031;-86
2023/09/07 09:14:35;;;;;;;16.25;5.63;;;27.20;99.90;;;;;;4988849;28;20042;-85
2023/09/07 09:17:01;;;;;;;21.90;5.60;;;27.30;99.90;;;;;;4988974;28;20518;-86
2023/09/07 09:19:34;;;;;;;12.50;5.80;;;27.30;99.90;;;;;;4987570;28;20482;-85
2023/09/07 09:22:00;;;;;;;14.90;5.70;;;27.50;99.90;;;;;;4983787;28;20510;-86
2023/09/07 09:24:26;;;;;;;16.77;5.90;;;27.60;99.90;;;;;;4978539;28;20080;-86
2023/09/07 09:26:51;;;;;;;10.88;5.43;;;27.70;99.90;;;;;;4987783;28;20109;-86
2023/09/07 09:29:22;;;;;;;15.95;5.60;;;27.70;99.90;;;;;;5005117;28;20033;-86
2023/09/07 09:31:48;;;;;;;14.65;5.40;;;27.80;99.90;;;;;;5005950;28;20030;-86
2023/09/07 09:34:14;;;;;;;13.02;4.97;;;27.80;99.90;;;;;;4990316;28;20042;-86
2023/09/07 09:36:42;;;;;;;12.88;5.70;;;27.90;99.90;;;;;;4989518;28;20102;-86
2023/09/07 09:39:09;;;;;;;17.83;6.28;;;27.90;99.90;;;;;;4988699;28;20038;-86
2023/09/07 09:41:36;;;;;;;24.13;5.95;;;28.00;99.90;;;;;;4989600;28;20069;-86
2023/09/07 09:44:03;;;;;;;15.00;5.47;;;28.20;99.90;;;;;;4993010;28;20034;-85
2023/09/07 09:46:31;;;;;;;18.48;5.32;;;28.30;99.90;;;;;;5009154;28;20560;-85
2023/09/07 09:48:57;;;;;;;15.35;5.40;;;28.30;99.90;;;;;;5009355;28;20473;-86
2023/09/07 09:51:27;;;;;;;12.00;5.40;;;28.40;99.90;;;;;;5009146;28;20058;-86
2023/09/07 09:53:53;;;;;;;16.27;5.75;;;28.40;99.90;;;;;;5009154;28;20077;-86
2023/09/07 09:56:20;;;;;;;13.07;5.03;;;28.40;99.90;;;;;;4997694;28;20081;-86
2023/09/07 09:58:46;;;;;;;13.88;5.25;;;28.50;99.90;;;;;;4990035;28;20281;-86
2023/09/07 10:01:14;;;;;;;14.07;5.38;;;28.60;99.90;;;;;;4978172;28;20078;-86
2023/09/07 10:03:46;;;;;;;13.82;5.32;;;28.70;99.90;;;;;;4992629;28;20030;-85
2023/09/07 10:06:18;;;;;;;15.85;5.05;;;28.70;99.90;;;;;;5013657;28;20036;-85
2023/09/07 10:08:59;;;;;;;20.25;5.30;;;28.80;99.90;;;;;;5003041;28;20021;-86
2023/09/07 10:11:43;;;;;;;11.65;5.43;;;28.80;99.90;;;;;;4993044;28;20027;-86
2023/09/07 10:14:11;;;;;;;11.05;4.97;;;28.90;99.90;;;;;;4992034;28;20470;-85
2023/09/07 10:16:43;;;;;;;;;;;28.90;99.90;;;;;;4993333;28;20102;-85
2023/09/07 10:19:20;;;;;;;11.75;5.53;;;28.90;99.90;;;;;;4988286;28;20005;-85
2023/09/07 10:21:46;;;;;;;12.48;4.35;;;29.00;99.90;;;;;;4974215;28;20070;-86
2023/09/07 10:24:23;;;;;;;9.68;4.38;;;29.00;99.90;;;;;;4986376;28;20496;-86
2023/09/07 10:27:00;;;;;;;12.00;4.40;;;29.00;99.90;;;;;;4990294;28;20033;-87
2023/09/07 10:29:26;;;;;;;;;;;29.00;99.90;;;;;;4993732;28;20026;-86
2023/09/07 10:31:52;;;;;;;11.48;4.53;;;29.00;99.90;;;;;;4973094;28;19928;-86
2023/09/07 10:34:18;;;;;;;17.13;4.55;;;29.00;99.90;;;;;;5000884;28;20089;-86
2023/09/07 10:36:44;;;;;;;10.07;4.32;;;29.10;99.90;;;;;;5012872;28;20025;-86
2023/09/07 10:39:12;;;;;;;14.85;4.53;;;29.20;99.90;;;;;;5012458;28;20513;-86
2023/09/07 10:41:45;;;;;;;12.63;4.40;;;29.20;99.90;;;;;;5012046;28;20022;-84
2023/09/07 10:44:12;;;;;;;14.57;4.65;;;29.30;99.90;;;;;;5011922;28;20026;-86
2023/09/07 10:46:39;;;;;;;21.02;4.90;;;29.40;99.90;;;;;;4995916;28;20026;-85
2023/09/07 10:49:08;;;;;;;16.13;4.28;;;29.40;99.90;;;;;;4992539;28;20114;-86
2023/09/07 10:51:49;;;;;;;12.70;4.47;;;29.50;99.90;;;;;;4992664;28;20034;-87
2023/09/07 10:54:15;;;;;;;16.70;4.93;;;29.60;99.90;;;;;;4993227;28;20041;-86
2023/09/07 10:56:44;;;;;;;11.20;4.82;;;29.50;99.90;;;;;;4992421;28;20034;-86
2023/09/07 10:59:09;;;;;;;11.85;4.43;;;29.60;99.90;;;;;;4990817;28;20626;-86
2023/09/07 11:01:35;;;;;;;19.88;4.43;;;29.60;99.90;;;;;;4986691;28;20034;-85
2023/09/07 11:04:00;;;;;;;12.15;4.10;;;29.80;99.90;;;;;;4988119;28;20030;-85
2023/09/07 11:06:26;;;;;;;14.25;3.95;;;29.80;99.90;;;;;;4992244;28;20465;-87
2023/09/07 11:08:52;;;;;;;13.30;4.28;;;29.80;99.90;;;;;;4991484;28;20026;-85
2023/09/07 11:11:17;;;;;;;10.55;3.78;;;29.90;99.90;;;;;;4989652;28;20216;-85
2023/09/07 11:13:43;;;;;;;9.65;3.90;;;29.90;99.90;;;;;;4978578;28;20565;-84
2023/09/07 11:16:10;;;;;;;13.48;4.15;;;29.90;99.90;;;;;;4990043;28;20545;-86
2023/09/07 11:18:36;;;;;;;11.13;4.15;;;29.90;99.90;;;;;;4991423;28;20030;-85
2023/09/07 11:21:07;;;;;;;13.57;3.75;;;30.00;99.90;;;;;;4991226;28;20126;-85
2023/09/07 11:23:39;;;;;;;9.93;3.65;;;29.90;99.90;;;;;;4991771;28;20022;-86
2023/09/07 11:26:05;;;;;;;15.45;4.18;;;30.00;99.90;;;;;;4989981;28;20032;-85
2023/09/07 11:28:31;;;;;;;8.05;3.88;;;29.90;99.90;;;;;;4989082;28;20038;-86
2023/09/07 11:30:58;;;;;;;11.75;3.60;;;30.10;99.90;;;;;;4988890;28;20556;-86
2023/09/07 11:33:24;;;;;;;17.88;4.35;;;30.30;99.90;;;;;;4991526;28;20034;-86
2023/09/07 11:35:51;;;;;;;23.25;4.57;;;30.20;99.90;;;;;;4991486;28;20096;-86
2023/09/07 11:38:17;;;;;;;13.85;4.30;;;30.40;99.90;;;;;;4990352;28;20026;-87
2023/09/07 11:40:44;;;;;;;17.17;4.20;;;30.40;99.90;;;;;;5011079;28;20026;-87
2023/09/07 11:43:19;;;;;;;12.55;3.92;;;30.50;99.90;;;;;;4998609;28;20026;-86
2023/09/07 11:45:45;;;;;;;22.10;4.22;;;30.70;99.90;;;;;;4991374;28;20023;-86
2023/09/07 11:48:11;;;;;;;20.83;4.25;;;30.50;99.90;;;;;;4991339;28;20425;-86
2023/09/07 11:50:38;;;;;;;19.27;4.55;;;30.70;99.90;;;;;;4991266;28;20031;-85
2023/09/07 11:53:04;;;;;;;19.17;4.57;;;30.70;99.90;;;;;;4989904;28;20422;-85
2023/09/07 11:55:30;;;;;;;14.43;4.07;;;30.60;99.90;;;;;;4991141;28;20030;-86
2023/09/07 11:57:56;;;;;;;22.83;4.68;;;30.70;99.90;;;;;;4991167;28;20169;-86
2023/09/07 12:00:23;;;;;;;19.42;4.28;;;30.60;99.90;;;;;;4991918;28;20069;-87
2023/09/07 12:02:49;;;;;;;18.85;4.78;;;30.70;99.90;;;;;;4991865;28;20033;-85
2023/09/07 12:05:15;;;;;;;23.15;4.95;;;30.80;99.90;;;;;;4976559;28;20402;-86
2023/09/07 12:07:45;;;;;;;16.40;4.00;;;30.90;99.90;;;;;;4990177;28;20022;-86
2023/09/07 12:10:13;;;;;;;19.85;4.85;;;30.90;99.90;;;;;;4990930;28;20038;-86
2023/09/07 12:12:42;;;;;;;17.02;5.22;;;30.90;99.90;;;;;;4984898;28;20118;-86
2023/09/07 12:15:09;;;;;;;22.90;4.32;;;30.80;99.90;;;;;;4985035;28;20058;-86
2023/09/07 12:17:34;;;;;;;59.70;34.97;;;31.00;99.90;;;;;;4970927;28;20027;-86
2023/09/07 12:20:01;;;;;;;17.23;4.35;;;31.10;99.90;;;;;;4970908;28;20045;-86
2023/09/07 12:22:27;;;;;;;26.80;5.25;;;31.20;99.90;;;;;;4979385;28;20402;-87
2023/09/07 12:24:53;;;;;;;21.05;4.85;;;31.30;99.90;;;;;;4990928;28;20065;-86
2023/09/07 12:27:19;;;;;;;20.00;4.97;;;31.30;99.90;;;;;;4978235;28;20089;-87
2023/09/07 12:29:45;;;;;;;17.40;4.20;;;31.20;99.90;;;;;;4985230;28;20911;-87
2023/09/07 12:32:11;;;;;;;16.08;4.75;;;31.20;99.90;;;;;;4986919;28;20057;-86
2023/09/07 12:34:37;;;;;;;23.33;4.75;;;31.20;99.90;;;;;;4971011;28;20066;-87